sensor_id;sensor_type;location;lat;lon;timestamp;P1;durP1;ratioP1;P2;durP2;ratioP2
50769;SDS011;36740;48.698;11.472;2023-11-19T00:01:53;4.88;;;2.40;;
50769;SDS011;36740;48.698;11.472;2023-11-19T00:04:39;4.28;;;3.45;;
50769;SDS011;36740;48.698;11.472;2023-11-19T00:07:25;5.15;;;4.18;;
50769;SDS011;36740;48.698;11.472;2023-11-19T00:10:11;4.85;;;2.53;;
50769;SDS011;36740;48.698;11.472;2023-11-19T00:12:59;4.70;;;2.88;;
50769;SDS011;36740;48.698;11.472;2023-11-19T00:15:44;6.35;;;3.00;;
50769;SDS011;36740;48.698;11.472;2023-11-19T00:18:30;5.90;;;2.95;;
50769;SDS011;36740;48.698;11.472;2023-11-19T00:21:16;4.50;;;2.80;;
50769;SDS011;36740;48.698;11.472;2023-11-19T00:24:02;6.47;;;2.67;;
50769;SDS011;36740;48.698;11.472;2023-11-19T00:26:47;5.47;;;3.15;;
50769;SDS011;36740;48.698;11.472;2023-11-19T00:29:34;5.47;;;3.08;;
50769;SDS011;36740;48.698;11.472;2023-11-19T00:32:21;5.57;;;2.95;;
50769;SDS011;36740;48.698;11.472;2023-11-19T00:35:07;4.75;;;3.20;;
50769;SDS011;36740;48.698;11.472;2023-11-19T00:37:53;2.55;;;2.30;;
50769;SDS011;36740;48.698;11.472;2023-11-19T00:40:39;5.20;;;2.58;;
50769;SDS011;36740;48.698;11.472;2023-11-19T00:43:26;4.95;;;3.65;;
50769;SDS011;36740;48.698;11.472;2023-11-19T00:46:12;5.03;;;3.10;;
50769;SDS011;36740;48.698;11.472;2023-11-19T00:48:59;7.68;;;3.42;;
50769;SDS011;36740;48.698;11.472;2023-11-19T00:51:46;5.95;;;3.38;;
50769;SDS011;36740;48.698;11.472;2023-11-19T00:54:32;3.55;;;2.25;;
50769;SDS011;36740;48.698;11.472;2023-11-19T00:57:18;4.78;;;2.97;;
50769;SDS011;36740;48.698;11.472;2023-11-19T01:00:04;2.97;;;2.33;;
50769;SDS011;36740;48.698;11.472;2023-11-19T01:03:03;5.40;;;3.13;;
50769;SDS011;36740;48.698;11.472;2023-11-19T01:05:49;3.72;;;2.80;;
50769;SDS011;36740;48.698;11.472;2023-11-19T01:08:35;6.30;;;2.58;;
50769;SDS011;36740;48.698;11.472;2023-11-19T01:11:21;5.53;;;3.65;;
50769;SDS011;36740;48.698;11.472;2023-11-19T01:14:08;7.43;;;5.10;;
50769;SDS011;36740;48.698;11.472;2023-11-19T01:16:53;5.57;;;3.45;;
50769;SDS011;36740;48.698;11.472;2023-11-19T01:19:39;3.58;;;2.80;;
50769;SDS011;36740;48.698;11.472;2023-11-19T01:22:25;6.00;;;3.42;;
50769;SDS011;36740;48.698;11.472;2023-11-19T01:25:11;5.53;;;3.95;;
50769;SDS011;36740;48.698;11.472;2023-11-19T01:27:57;5.20;;;2.95;;
50769;SDS011;36740;48.698;11.472;2023-11-19T01:30:43;9.38;;;4.25;;
50769;SDS011;36740;48.698;11.472;2023-11-19T01:33:29;5.47;;;3.13;;
50769;SDS011;36740;48.698;11.472;2023-11-19T01:36:15;6.50;;;3.30;;
50769;SDS011;36740;48.698;11.472;2023-11-19T01:39:01;6.32;;;4.40;;
50769;SDS011;36740;48.698;11.472;2023-11-19T01:41:47;6.47;;;3.95;;
50769;SDS011;36740;48.698;11.472;2023-11-19T01:44:33;4.80;;;3.33;;
50769;SDS011;36740;48.698;11.472;2023-11-19T01:47:19;5.63;;;3.95;;
50769;SDS011;36740;48.698;11.472;2023-11-19T01:50:06;6.22;;;3.20;;
50769;SDS011;36740;48.698;11.472;2023-11-19T01:52:53;6.05;;;3.83;;
50769;SDS011;36740;48.698;11.472;2023-11-19T01:55:39;6.22;;;4.05;;
50769;SDS011;36740;48.698;11.472;2023-11-19T01:58:26;8.32;;;4.13;;
50769;SDS011;36740;48.698;11.472;2023-11-19T02:01:12;4.03;;;2.67;;
50769;SDS011;36740;48.698;11.472;2023-11-19T02:03:58;4.93;;;3.60;;
50769;SDS011;36740;48.698;11.472;2023-11-19T02:06:45;5.60;;;3.97;;
50769;SDS011;36740;48.698;11.472;2023-11-19T02:09:33;4.18;;;3.65;;
50769;SDS011;36740;48.698;11.472;2023-11-19T02:12:19;8.13;;;3.83;;
50769;SDS011;36740;48.698;11.472;2023-11-19T02:15:05;6.80;;;4.70;;
50769;SDS011;36740;48.698;11.472;2023-11-19T02:17:52;7.43;;;4.18;;
50769;SDS011;36740;48.698;11.472;2023-11-19T02:20:38;5.90;;;3.65;;
50769;SDS011;36740;48.698;11.472;2023-11-19T02:23:24;6.78;;;3.72;;
50769;SDS011;36740;48.698;11.472;2023-11-19T02:26:16;6.97;;;4.07;;
50769;SDS011;36740;48.698;11.472;2023-11-19T02:29:08;5.20;;;3.53;;
50769;SDS011;36740;48.698;11.472;2023-11-19T02:31:54;7.85;;;4.43;;
50769;SDS011;36740;48.698;11.472;2023-11-19T02:34:40;8.40;;;3.25;;
50769;SDS011;36740;48.698;11.472;2023-11-19T02:37:26;7.72;;;3.60;;
50769;SDS011;36740;48.698;11.472;2023-11-19T02:40:13;5.35;;;3.38;;
50769;SDS011;36740;48.698;11.472;2023-11-19T02:42:59;6.13;;;3.42;;
50769;SDS011;36740;48.698;11.472;2023-11-19T02:45:45;3.90;;;3.33;;
50769;SDS011;36740;48.698;11.472;2023-11-19T02:48:31;4.43;;;3.00;;
50769;SDS011;36740;48.698;11.472;2023-11-19T02:51:17;6.65;;;4.05;;
50769;SDS011;36740;48.698;11.472;2023-11-19T02:54:04;5.68;;;3.45;;
50769;SDS011;36740;48.698;11.472;2023-11-19T02:56:49;5.40;;;3.28;;
50769;SDS011;36740;48.698;11.472;2023-11-19T03:02:28;6.18;;;3.80;;
50769;SDS011;36740;48.698;11.472;2023-11-19T03:08:05;11.23;;;3.97;;
50769;SDS011;36740;48.698;11.472;2023-11-19T03:10:51;9.30;;;4.55;;
50769;SDS011;36740;48.698;11.472;2023-11-19T03:13:37;7.28;;;4.15;;
50769;SDS011;36740;48.698;11.472;2023-11-19T03:16:22;6.35;;;4.00;;
50769;SDS011;36740;48.698;11.472;2023-11-19T03:19:08;7.80;;;4.15;;
50769;SDS011;36740;48.698;11.472;2023-11-19T03:21:54;7.97;;;3.90;;
50769;SDS011;36740;48.698;11.472;2023-11-19T03:24:40;6.05;;;3.40;;
50769;SDS011;36740;48.698;11.472;2023-11-19T03:27:25;5.63;;;3.63;;
50769;SDS011;36740;48.698;11.472;2023-11-19T03:30:11;6.43;;;4.35;;
50769;SDS011;36740;48.698;11.472;2023-11-19T03:32:57;6.00;;;3.88;;
50769;SDS011;36740;48.698;11.472;2023-11-19T03:35:43;7.20;;;4.13;;
50769;SDS011;36740;48.698;11.472;2023-11-19T03:38:29;5.57;;;3.47;;
50769;SDS011;36740;48.698;11.472;2023-11-19T03:41:15;5.57;;;3.72;;
50769;SDS011;36740;48.698;11.472;2023-11-19T03:44:02;4.00;;;3.58;;
50769;SDS011;36740;48.698;11.472;2023-11-19T03:46:48;9.55;;;3.83;;
50769;SDS011;36740;48.698;11.472;2023-11-19T03:49:34;4.55;;;3.63;;
50769;SDS011;36740;48.698;11.472;2023-11-19T03:52:20;8.02;;;3.80;;
50769;SDS011;36740;48.698;11.472;2023-11-19T03:55:05;8.70;;;3.03;;
50769;SDS011;36740;48.698;11.472;2023-11-19T03:57:53;7.22;;;4.40;;
50769;SDS011;36740;48.698;11.472;2023-11-19T04:00:39;6.82;;;4.00;;
50769;SDS011;36740;48.698;11.472;2023-11-19T04:03:26;5.78;;;3.72;;
50769;SDS011;36740;48.698;11.472;2023-11-19T04:06:11;6.18;;;3.45;;
50769;SDS011;36740;48.698;11.472;2023-11-19T04:08:57;5.25;;;3.65;;
50769;SDS011;36740;48.698;11.472;2023-11-19T04:11:43;5.63;;;3.20;;
50769;SDS011;36740;48.698;11.472;2023-11-19T04:14:29;10.10;;;3.35;;
50769;SDS011;36740;48.698;11.472;2023-11-19T04:17:15;7.72;;;4.00;;
50769;SDS011;36740;48.698;11.472;2023-11-19T04:20:00;4.57;;;2.92;;
50769;SDS011;36740;48.698;11.472;2023-11-19T04:22:46;4.97;;;3.63;;
50769;SDS011;36740;48.698;11.472;2023-11-19T04:25:32;8.00;;;4.15;;
50769;SDS011;36740;48.698;11.472;2023-11-19T04:28:18;5.43;;;3.63;;
50769;SDS011;36740;48.698;11.472;2023-11-19T04:31:04;3.90;;;2.92;;
50769;SDS011;36740;48.698;11.472;2023-11-19T04:33:51;8.15;;;3.50;;
50769;SDS011;36740;48.698;11.472;2023-11-19T04:36:38;5.15;;;3.28;;
50769;SDS011;36740;48.698;11.472;2023-11-19T04:39:24;7.05;;;3.90;;
50769;SDS011;36740;48.698;11.472;2023-11-19T04:42:10;7.38;;;4.47;;
50769;SDS011;36740;48.698;11.472;2023-11-19T04:44:56;5.30;;;4.35;;
50769;SDS011;36740;48.698;11.472;2023-11-19T04:47:42;7.38;;;4.10;;
50769;SDS011;36740;48.698;11.472;2023-11-19T04:50:28;7.78;;;4.00;;
50769;SDS011;36740;48.698;11.472;2023-11-19T04:53:14;8.25;;;4.38;;
50769;SDS011;36740;48.698;11.472;2023-11-19T04:56:01;7.13;;;4.72;;
50769;SDS011;36740;48.698;11.472;2023-11-19T04:58:52;7.22;;;3.65;;
50769;SDS011;36740;48.698;11.472;2023-11-19T05:01:38;7.38;;;4.95;;
50769;SDS011;36740;48.698;11.472;2023-11-19T05:04:24;7.70;;;3.60;;
50769;SDS011;36740;48.698;11.472;2023-11-19T05:07:09;6.97;;;3.20;;
50769;SDS011;36740;48.698;11.472;2023-11-19T05:09:55;6.82;;;3.92;;
50769;SDS011;36740;48.698;11.472;2023-11-19T05:12:41;6.30;;;3.17;;
50769;SDS011;36740;48.698;11.472;2023-11-19T05:15:27;4.85;;;3.47;;
50769;SDS011;36740;48.698;11.472;2023-11-19T05:18:13;7.22;;;3.75;;
50769;SDS011;36740;48.698;11.472;2023-11-19T05:20:58;6.47;;;3.53;;
50769;SDS011;36740;48.698;11.472;2023-11-19T05:23:44;3.63;;;2.78;;
50769;SDS011;36740;48.698;11.472;2023-11-19T05:26:30;4.85;;;3.20;;
50769;SDS011;36740;48.698;11.472;2023-11-19T05:29:16;5.57;;;3.53;;
50769;SDS011;36740;48.698;11.472;2023-11-19T05:32:01;3.78;;;2.30;;
50769;SDS011;36740;48.698;11.472;2023-11-19T05:34:47;4.40;;;2.78;;
50769;SDS011;36740;48.698;11.472;2023-11-19T05:37:33;3.92;;;1.98;;
50769;SDS011;36740;48.698;11.472;2023-11-19T05:40:20;3.10;;;2.28;;
50769;SDS011;36740;48.698;11.472;2023-11-19T05:43:06;2.78;;;2.33;;
50769;SDS011;36740;48.698;11.472;2023-11-19T05:45:51;2.45;;;2.08;;
50769;SDS011;36740;48.698;11.472;2023-11-19T05:48:37;5.13;;;2.22;;
50769;SDS011;36740;48.698;11.472;2023-11-19T05:51:23;3.50;;;2.55;;
50769;SDS011;36740;48.698;11.472;2023-11-19T05:54:10;3.28;;;2.15;;
50769;SDS011;36740;48.698;11.472;2023-11-19T05:56:56;3.15;;;2.28;;
50769;SDS011;36740;48.698;11.472;2023-11-19T05:59:42;3.15;;;2.22;;
50769;SDS011;36740;48.698;11.472;2023-11-19T06:02:34;3.70;;;1.85;;
50769;SDS011;36740;48.698;11.472;2023-11-19T06:05:20;1.90;;;1.80;;
50769;SDS011;36740;48.698;11.472;2023-11-19T06:08:05;4.40;;;1.85;;
50769;SDS011;36740;48.698;11.472;2023-11-19T06:10:52;4.78;;;2.65;;
50769;SDS011;36740;48.698;11.472;2023-11-19T06:13:38;3.90;;;2.50;;
50769;SDS011;36740;48.698;11.472;2023-11-19T06:16:24;4.22;;;3.03;;
50769;SDS011;36740;48.698;11.472;2023-11-19T06:19:09;4.00;;;2.67;;
50769;SDS011;36740;48.698;11.472;2023-11-19T06:21:55;4.70;;;2.05;;
50769;SDS011;36740;48.698;11.472;2023-11-19T06:24:41;4.07;;;3.05;;
50769;SDS011;36740;48.698;11.472;2023-11-19T06:27:27;7.25;;;2.83;;
50769;SDS011;36740;48.698;11.472;2023-11-19T06:30:12;2.90;;;1.75;;
50769;SDS011;36740;48.698;11.472;2023-11-19T06:32:58;2.47;;;2.08;;
50769;SDS011;36740;48.698;11.472;2023-11-19T06:35:45;3.88;;;2.38;;
50769;SDS011;36740;48.698;11.472;2023-11-19T06:38:31;2.42;;;1.67;;
50769;SDS011;36740;48.698;11.472;2023-11-19T06:41:16;2.83;;;1.63;;
50769;SDS011;36740;48.698;11.472;2023-11-19T06:44:02;2.95;;;1.77;;
50769;SDS011;36740;48.698;11.472;2023-11-19T06:46:48;2.42;;;1.88;;
50769;SDS011;36740;48.698;11.472;2023-11-19T06:49:34;1.88;;;1.67;;
50769;SDS011;36740;48.698;11.472;2023-11-19T06:52:20;3.30;;;2.42;;
50769;SDS011;36740;48.698;11.472;2023-11-19T06:55:06;6.78;;;1.63;;
50769;SDS011;36740;48.698;11.472;2023-11-19T06:57:52;1.75;;;1.60;;
50769;SDS011;36740;48.698;11.472;2023-11-19T07:00:38;2.92;;;2.05;;
50769;SDS011;36740;48.698;11.472;2023-11-19T07:03:24;1.55;;;1.38;;
50769;SDS011;36740;48.698;11.472;2023-11-19T07:06:10;3.80;;;2.72;;
50769;SDS011;36740;48.698;11.472;2023-11-19T07:08:56;2.70;;;1.73;;
50769;SDS011;36740;48.698;11.472;2023-11-19T07:11:43;1.10;;;1.10;;
50769;SDS011;36740;48.698;11.472;2023-11-19T07:14:29;4.57;;;2.88;;
50769;SDS011;36740;48.698;11.472;2023-11-19T07:17:15;1.90;;;1.30;;
50769;SDS011;36740;48.698;11.472;2023-11-19T07:20:00;4.15;;;1.95;;
50769;SDS011;36740;48.698;11.472;2023-11-19T07:22:46;2.42;;;1.50;;
50769;SDS011;36740;48.698;11.472;2023-11-19T07:25:32;3.38;;;2.13;;
50769;SDS011;36740;48.698;11.472;2023-11-19T07:28:20;2.90;;;2.05;;
50769;SDS011;36740;48.698;11.472;2023-11-19T07:31:06;2.10;;;1.70;;
50769;SDS011;36740;48.698;11.472;2023-11-19T07:33:54;3.13;;;2.17;;
50769;SDS011;36740;48.698;11.472;2023-11-19T07:36:40;3.15;;;1.98;;
50769;SDS011;36740;48.698;11.472;2023-11-19T07:39:26;5.28;;;1.42;;
50769;SDS011;36740;48.698;11.472;2023-11-19T07:42:11;3.08;;;1.90;;
50769;SDS011;36740;48.698;11.472;2023-11-19T07:44:57;4.20;;;2.60;;
50769;SDS011;36740;48.698;11.472;2023-11-19T07:47:43;3.13;;;1.73;;
50769;SDS011;36740;48.698;11.472;2023-11-19T07:50:32;3.90;;;2.10;;
50769;SDS011;36740;48.698;11.472;2023-11-19T07:53:18;2.03;;;1.80;;
50769;SDS011;36740;48.698;11.472;2023-11-19T07:56:05;1.80;;;1.55;;
50769;SDS011;36740;48.698;11.472;2023-11-19T07:58:51;3.83;;;2.20;;
50769;SDS011;36740;48.698;11.472;2023-11-19T08:01:37;3.70;;;3.15;;
50769;SDS011;36740;48.698;11.472;2023-11-19T08:04:23;4.20;;;2.38;;
50769;SDS011;36740;48.698;11.472;2023-11-19T08:07:09;3.10;;;2.13;;
50769;SDS011;36740;48.698;11.472;2023-11-19T08:09:55;2.85;;;2.08;;
50769;SDS011;36740;48.698;11.472;2023-11-19T08:12:40;3.83;;;2.67;;
50769;SDS011;36740;48.698;11.472;2023-11-19T08:15:26;2.63;;;2.03;;
50769;SDS011;36740;48.698;11.472;2023-11-19T08:18:12;22.38;;;14.40;;
50769;SDS011;36740;48.698;11.472;2023-11-19T08:20:58;8.52;;;5.28;;
50769;SDS011;36740;48.698;11.472;2023-11-19T08:23:50;5.65;;;3.53;;
50769;SDS011;36740;48.698;11.472;2023-11-19T08:26:35;5.53;;;2.88;;
50769;SDS011;36740;48.698;11.472;2023-11-19T08:29:21;2.70;;;2.10;;
50769;SDS011;36740;48.698;11.472;2023-11-19T08:32:07;3.10;;;1.95;;
50769;SDS011;36740;48.698;11.472;2023-11-19T08:34:53;3.95;;;2.25;;
50769;SDS011;36740;48.698;11.472;2023-11-19T08:37:39;11.02;;;5.88;;
50769;SDS011;36740;48.698;11.472;2023-11-19T08:40:25;13.18;;;6.93;;
50769;SDS011;36740;48.698;11.472;2023-11-19T08:43:15;7.90;;;3.42;;
50769;SDS011;36740;48.698;11.472;2023-11-19T08:46:01;11.40;;;4.63;;
50769;SDS011;36740;48.698;11.472;2023-11-19T08:48:47;7.18;;;4.72;;
50769;SDS011;36740;48.698;11.472;2023-11-19T08:51:32;2.05;;;1.85;;
50769;SDS011;36740;48.698;11.472;2023-11-19T08:54:18;5.18;;;2.40;;
50769;SDS011;36740;48.698;11.472;2023-11-19T08:57:05;2.22;;;1.48;;
50769;SDS011;36740;48.698;11.472;2023-11-19T08:59:52;2.45;;;1.67;;
50769;SDS011;36740;48.698;11.472;2023-11-19T09:02:38;1.55;;;1.45;;
50769;SDS011;36740;48.698;11.472;2023-11-19T09:05:24;3.70;;;1.85;;
50769;SDS011;36740;48.698;11.472;2023-11-19T09:08:10;2.97;;;1.83;;
50769;SDS011;36740;48.698;11.472;2023-11-19T09:10:57;4.03;;;1.58;;
50769;SDS011;36740;48.698;11.472;2023-11-19T09:13:43;2.20;;;1.60;;
50769;SDS011;36740;48.698;11.472;2023-11-19T09:16:30;2.42;;;1.88;;
50769;SDS011;36740;48.698;11.472;2023-11-19T09:19:16;3.55;;;1.98;;
50769;SDS011;36740;48.698;11.472;2023-11-19T09:22:02;2.60;;;1.50;;
50769;SDS011;36740;48.698;11.472;2023-11-19T09:24:49;2.30;;;1.48;;
50769;SDS011;36740;48.698;11.472;2023-11-19T09:27:35;1.45;;;1.35;;
50769;SDS011;36740;48.698;11.472;2023-11-19T09:30:20;2.65;;;2.13;;
50769;SDS011;36740;48.698;11.472;2023-11-19T09:33:06;1.48;;;1.38;;
50769;SDS011;36740;48.698;11.472;2023-11-19T09:35:52;1.30;;;1.20;;
50769;SDS011;36740;48.698;11.472;2023-11-19T09:38:38;2.25;;;1.45;;
50769;SDS011;36740;48.698;11.472;2023-11-19T09:41:24;1.02;;;1.00;;
50769;SDS011;36740;48.698;11.472;2023-11-19T09:44:10;3.42;;;1.95;;
50769;SDS011;36740;48.698;11.472;2023-11-19T09:46:57;1.05;;;1.05;;
50769;SDS011;36740;48.698;11.472;2023-11-19T09:49:44;2.40;;;1.17;;
50769;SDS011;36740;48.698;11.472;2023-11-19T09:52:30;2.92;;;1.67;;
50769;SDS011;36740;48.698;11.472;2023-11-19T09:55:16;0.90;;;0.90;;
50769;SDS011;36740;48.698;11.472;2023-11-19T09:58:02;0.90;;;0.90;;
50769;SDS011;36740;48.698;11.472;2023-11-19T10:00:49;1.35;;;1.25;;
50769;SDS011;36740;48.698;11.472;2023-11-19T10:03:37;1.63;;;1.48;;
50769;SDS011;36740;48.698;11.472;2023-11-19T10:06:25;1.58;;;1.48;;
50769;SDS011;36740;48.698;11.472;2023-11-19T10:09:12;1.23;;;1.13;;
50769;SDS011;36740;48.698;11.472;2023-11-19T10:12:00;1.73;;;1.45;;
50769;SDS011;36740;48.698;11.472;2023-11-19T10:14:47;1.38;;;0.93;;
50769;SDS011;36740;48.698;11.472;2023-11-19T10:17:34;0.95;;;0.95;;
50769;SDS011;36740;48.698;11.472;2023-11-19T10:20:20;1.20;;;1.10;;
50769;SDS011;36740;48.698;11.472;2023-11-19T10:23:05;2.00;;;1.60;;
50769;SDS011;36740;48.698;11.472;2023-11-19T10:25:52;0.90;;;0.90;;
50769;SDS011;36740;48.698;11.472;2023-11-19T10:28:38;0.90;;;0.90;;
50769;SDS011;36740;48.698;11.472;2023-11-19T10:31:26;3.60;;;1.25;;
50769;SDS011;36740;48.698;11.472;2023-11-19T10:34:24;1.58;;;1.17;;
50769;SDS011;36740;48.698;11.472;2023-11-19T10:37:27;1.00;;;0.90;;
50769;SDS011;36740;48.698;11.472;2023-11-19T10:40:15;0.77;;;0.77;;
50769;SDS011;36740;48.698;11.472;2023-11-19T10:43:03;1.15;;;1.05;;
50769;SDS011;36740;48.698;11.472;2023-11-19T10:45:49;2.90;;;1.63;;
50769;SDS011;36740;48.698;11.472;2023-11-19T10:48:35;7.57;;;1.73;;
50769;SDS011;36740;48.698;11.472;2023-11-19T10:51:21;2.80;;;1.98;;
50769;SDS011;36740;48.698;11.472;2023-11-19T10:54:08;0.95;;;0.95;;
50769;SDS011;36740;48.698;11.472;2023-11-19T10:56:57;1.00;;;1.00;;
50769;SDS011;36740;48.698;11.472;2023-11-19T10:59:46;1.70;;;1.13;;
50769;SDS011;36740;48.698;11.472;2023-11-19T11:02:33;1.48;;;1.38;;
50769;SDS011;36740;48.698;11.472;2023-11-19T11:05:26;0.93;;;0.93;;
50769;SDS011;36740;48.698;11.472;2023-11-19T11:08:12;1.55;;;0.90;;
50769;SDS011;36740;48.698;11.472;2023-11-19T11:10:58;2.05;;;1.00;;
50769;SDS011;36740;48.698;11.472;2023-11-19T11:13:45;8.35;;;1.83;;
50769;SDS011;36740;48.698;11.472;2023-11-19T11:16:32;0.85;;;0.85;;
50769;SDS011;36740;48.698;11.472;2023-11-19T11:19:19;2.17;;;1.40;;
50769;SDS011;36740;48.698;11.472;2023-11-19T11:22:05;1.48;;;1.08;;
50769;SDS011;36740;48.698;11.472;2023-11-19T11:24:59;3.50;;;1.65;;
50769;SDS011;36740;48.698;11.472;2023-11-19T11:37:34;2.20;;;1.42;;
50769;SDS011;36740;48.698;11.472;2023-11-19T11:40:25;1.80;;;1.42;;
50769;SDS011;36740;48.698;11.472;2023-11-19T11:49:24;0.80;;;0.80;;
50769;SDS011;36740;48.698;11.472;2023-11-19T11:52:10;1.00;;;0.93;;
50769;SDS011;36740;48.698;11.472;2023-11-19T11:55:04;1.05;;;0.95;;
50769;SDS011;36740;48.698;11.472;2023-11-19T11:57:56;0.77;;;0.77;;
50769;SDS011;36740;48.698;11.472;2023-11-19T12:00:42;1.65;;;1.15;;
50769;SDS011;36740;48.698;11.472;2023-11-19T12:03:29;1.60;;;0.93;;
50769;SDS011;36740;48.698;11.472;2023-11-19T12:06:17;1.23;;;1.13;;
50769;SDS011;36740;48.698;11.472;2023-11-19T12:09:06;1.02;;;1.02;;
50769;SDS011;36740;48.698;11.472;2023-11-19T12:12:06;1.40;;;1.02;;
50769;SDS011;36740;48.698;11.472;2023-11-19T12:17:48;0.80;;;0.80;;
50769;SDS011;36740;48.698;11.472;2023-11-19T12:20:35;1.20;;;0.95;;
50769;SDS011;36740;48.698;11.472;2023-11-19T12:23:23;1.27;;;1.13;;
50769;SDS011;36740;48.698;11.472;2023-11-19T12:26:09;1.77;;;1.17;;
50769;SDS011;36740;48.698;11.472;2023-11-19T12:29:07;3.05;;;1.60;;
50769;SDS011;36740;48.698;11.472;2023-11-19T12:31:56;4.50;;;1.85;;
50769;SDS011;36740;48.698;11.472;2023-11-19T12:34:42;1.27;;;1.17;;
50769;SDS011;36740;48.698;11.472;2023-11-19T12:37:27;1.40;;;1.30;;
50769;SDS011;36740;48.698;11.472;2023-11-19T12:40:15;12.00;;;1.10;;
50769;SDS011;36740;48.698;11.472;2023-11-19T12:43:04;2.13;;;1.10;;
50769;SDS011;36740;48.698;11.472;2023-11-19T12:45:50;0.90;;;0.75;;
50769;SDS011;36740;48.698;11.472;2023-11-19T12:48:35;0.80;;;0.80;;
50769;SDS011;36740;48.698;11.472;2023-11-19T12:51:21;0.75;;;0.75;;
50769;SDS011;36740;48.698;11.472;2023-11-19T12:54:07;0.95;;;0.95;;
50769;SDS011;36740;48.698;11.472;2023-11-19T12:56:53;0.77;;;0.77;;
50769;SDS011;36740;48.698;11.472;2023-11-19T12:59:39;3.35;;;1.33;;
50769;SDS011;36740;48.698;11.472;2023-11-19T13:02:44;1.13;;;1.02;;
50769;SDS011;36740;48.698;11.472;2023-11-19T13:05:31;1.17;;;1.00;;
50769;SDS011;36740;48.698;11.472;2023-11-19T13:08:18;1.58;;;1.15;;
50769;SDS011;36740;48.698;11.472;2023-11-19T13:11:04;0.70;;;0.70;;
50769;SDS011;36740;48.698;11.472;2023-11-19T13:13:55;1.90;;;1.45;;
50769;SDS011;36740;48.698;11.472;2023-11-19T13:16:45;1.75;;;1.65;;
50769;SDS011;36740;48.698;11.472;2023-11-19T13:19:34;1.50;;;1.13;;
50769;SDS011;36740;48.698;11.472;2023-11-19T13:22:20;1.65;;;1.00;;
50769;SDS011;36740;48.698;11.472;2023-11-19T13:25:06;0.85;;;0.85;;
50769;SDS011;36740;48.698;11.472;2023-11-19T13:27:52;1.17;;;1.05;;
50769;SDS011;36740;48.698;11.472;2023-11-19T13:30:38;1.00;;;0.90;;
50769;SDS011;36740;48.698;11.472;2023-11-19T13:33:24;1.17;;;1.08;;
50769;SDS011;36740;48.698;11.472;2023-11-19T13:36:10;0.77;;;0.77;;
50769;SDS011;36740;48.698;11.472;2023-11-19T13:38:55;6.38;;;1.65;;
50769;SDS011;36740;48.698;11.472;2023-11-19T13:41:44;8.30;;;1.42;;
50769;SDS011;36740;48.698;11.472;2023-11-19T13:44:30;0.90;;;0.90;;
50769;SDS011;36740;48.698;11.472;2023-11-19T13:47:15;1.63;;;0.95;;
50769;SDS011;36740;48.698;11.472;2023-11-19T13:50:01;1.27;;;0.85;;
50769;SDS011;36740;48.698;11.472;2023-11-19T13:52:47;1.50;;;0.90;;
50769;SDS011;36740;48.698;11.472;2023-11-19T13:55:33;1.58;;;1.10;;
50769;SDS011;36740;48.698;11.472;2023-11-19T13:58:19;1.17;;;1.08;;
50769;SDS011;36740;48.698;11.472;2023-11-19T14:01:04;1.90;;;1.25;;
50769;SDS011;36740;48.698;11.472;2023-11-19T14:03:51;1.00;;;1.00;;
50769;SDS011;36740;48.698;11.472;2023-11-19T14:06:36;1.75;;;1.42;;
50769;SDS011;36740;48.698;11.472;2023-11-19T14:09:22;1.08;;;1.00;;
50769;SDS011;36740;48.698;11.472;2023-11-19T14:12:08;1.30;;;1.20;;
50769;SDS011;36740;48.698;11.472;2023-11-19T14:14:54;1.38;;;1.10;;
50769;SDS011;36740;48.698;11.472;2023-11-19T14:17:40;3.95;;;1.15;;
50769;SDS011;36740;48.698;11.472;2023-11-19T14:20:26;2.03;;;1.33;;
50769;SDS011;36740;48.698;11.472;2023-11-19T14:23:12;1.27;;;1.23;;
50769;SDS011;36740;48.698;11.472;2023-11-19T14:25:58;4.00;;;0.90;;
50769;SDS011;36740;48.698;11.472;2023-11-19T14:28:44;1.17;;;1.08;;
50769;SDS011;36740;48.698;11.472;2023-11-19T14:31:29;0.95;;;0.80;;
50769;SDS011;36740;48.698;11.472;2023-11-19T14:34:15;1.63;;;1.52;;
50769;SDS011;36740;48.698;11.472;2023-11-19T14:37:01;2.00;;;1.52;;
50769;SDS011;36740;48.698;11.472;2023-11-19T14:39:47;1.23;;;1.10;;
50769;SDS011;36740;48.698;11.472;2023-11-19T14:42:33;3.17;;;1.60;;
50769;SDS011;36740;48.698;11.472;2023-11-19T14:45:22;3.45;;;1.08;;
50769;SDS011;36740;48.698;11.472;2023-11-19T14:48:08;1.27;;;1.17;;
50769;SDS011;36740;48.698;11.472;2023-11-19T14:50:53;1.08;;;1.02;;
50769;SDS011;36740;48.698;11.472;2023-11-19T14:53:39;2.78;;;1.30;;
50769;SDS011;36740;48.698;11.472;2023-11-19T14:56:25;1.33;;;1.17;;
50769;SDS011;36740;48.698;11.472;2023-11-19T14:59:11;1.25;;;1.15;;
50769;SDS011;36740;48.698;11.472;2023-11-19T15:01:56;4.38;;;1.40;;
50769;SDS011;36740;48.698;11.472;2023-11-19T15:04:42;1.15;;;1.08;;
50769;SDS011;36740;48.698;11.472;2023-11-19T15:07:29;0.75;;;0.75;;
50769;SDS011;36740;48.698;11.472;2023-11-19T15:10:15;1.27;;;1.08;;
50769;SDS011;36740;48.698;11.472;2023-11-19T15:13:01;2.25;;;1.38;;
50769;SDS011;36740;48.698;11.472;2023-11-19T15:15:47;2.20;;;1.10;;
50769;SDS011;36740;48.698;11.472;2023-11-19T15:18:33;1.45;;;1.35;;
50769;SDS011;36740;48.698;11.472;2023-11-19T15:21:19;1.65;;;1.25;;
50769;SDS011;36740;48.698;11.472;2023-11-19T15:24:04;1.27;;;1.10;;
50769;SDS011;36740;48.698;11.472;2023-11-19T15:26:52;1.65;;;1.50;;
50769;SDS011;36740;48.698;11.472;2023-11-19T15:29:38;18.63;;;10.65;;
50769;SDS011;36740;48.698;11.472;2023-11-19T15:32:25;20.60;;;7.70;;
50769;SDS011;36740;48.698;11.472;2023-11-19T15:35:10;4.93;;;2.75;;
50769;SDS011;36740;48.698;11.472;2023-11-19T15:37:57;3.38;;;2.03;;
50769;SDS011;36740;48.698;11.472;2023-11-19T15:40:42;12.05;;;7.00;;
50769;SDS011;36740;48.698;11.472;2023-11-19T15:43:29;9.60;;;3.90;;
50769;SDS011;36740;48.698;11.472;2023-11-19T15:46:15;5.60;;;3.78;;
50769;SDS011;36740;48.698;11.472;2023-11-19T15:49:01;7.75;;;4.38;;
50769;SDS011;36740;48.698;11.472;2023-11-19T15:51:49;6.82;;;1.90;;
50769;SDS011;36740;48.698;11.472;2023-11-19T15:54:35;4.15;;;2.13;;
50769;SDS011;36740;48.698;11.472;2023-11-19T15:57:22;7.28;;;3.70;;
50769;SDS011;36740;48.698;11.472;2023-11-19T16:00:08;30.50;;;16.58;;
50769;SDS011;36740;48.698;11.472;2023-11-19T16:02:57;24.48;;;13.07;;
50769;SDS011;36740;48.698;11.472;2023-11-19T16:05:43;11.40;;;7.63;;
50769;SDS011;36740;48.698;11.472;2023-11-19T16:08:29;7.75;;;4.35;;
50769;SDS011;36740;48.698;11.472;2023-11-19T16:11:15;2.10;;;1.90;;
50769;SDS011;36740;48.698;11.472;2023-11-19T16:14:00;8.82;;;2.90;;
50769;SDS011;36740;48.698;11.472;2023-11-19T16:16:46;4.03;;;1.92;;
50769;SDS011;36740;48.698;11.472;2023-11-19T16:19:32;2.00;;;1.83;;
50769;SDS011;36740;48.698;11.472;2023-11-19T16:22:19;1.92;;;1.80;;
50769;SDS011;36740;48.698;11.472;2023-11-19T16:25:05;5.18;;;1.80;;
50769;SDS011;36740;48.698;11.472;2023-11-19T16:27:51;1.77;;;1.20;;
50769;SDS011;36740;48.698;11.472;2023-11-19T16:30:37;1.42;;;1.13;;
50769;SDS011;36740;48.698;11.472;2023-11-19T16:33:23;3.97;;;1.70;;
50769;SDS011;36740;48.698;11.472;2023-11-19T16:36:11;7.60;;;3.53;;
50769;SDS011;36740;48.698;11.472;2023-11-19T16:38:58;1.63;;;1.53;;
50769;SDS011;36740;48.698;11.472;2023-11-19T16:41:44;6.78;;;3.55;;
50769;SDS011;36740;48.698;11.472;2023-11-19T16:44:31;1.85;;;1.75;;
50769;SDS011;36740;48.698;11.472;2023-11-19T16:47:16;1.90;;;1.80;;
50769;SDS011;36740;48.698;11.472;2023-11-19T16:50:02;1.45;;;1.20;;
50769;SDS011;36740;48.698;11.472;2023-11-19T16:52:48;2.58;;;1.85;;